Primda, Czech Republic

10:20 AM CEST on September 21, 2014 (GMT +0200)
Stiftland | Change Station
CLOSE
Current Station
Personal Weather Station
Location: Tirschenreuth, BAVARIA
Elevation: 1680 ft
Nearby Weather Stations

Elev 1680 ft 49.88 °N, 12.34 °E | Updated 2 minutes ago

Clear
Clear
58.3 °F
Feels Like 58.3 °F
N
2.0
Wind Variable Wind from SW
Gusts 7.0 mph

Today
High -- | Low -- °F
--% Chance of Precip.
Yesterday
High -- | Low -- °F
Precip. -- in
6:53 AM 7:10 PM
Waning Crescent, 8% visible
Pressure 29.95 in
Visibility -9999.0 miles
Clouds
Dew Point 58 °F
Humidity 98%
Rainfall 0.01 in
Snow Depth Not available.
UV 0.0 out of 12
Pollen Not available.
Air Quality Not available.
Flu Activity Not available.
METAR LKLN 210800Z AUTO 25005KT 220V290 CAVOK 16/16 Q1014

More Conditions Fewer Conditions

Pressure 29.95 in
Visibility -9999.0 miles
Clouds
Dew Point 58 °F
Humidity 98%
Rainfall 0.01 in
Snow Depth Not available.
UV 0.0 out of 12
Pollen Not available.
Air Quality Not available.
Flu Activity Not available.
METAR LKLN 210800Z AUTO 25005KT 220V290 CAVOK 16/16 Q1014

More Conditions Fewer Conditions

10-Day Weather Forecast

Almanac

Astronomy

Sep. 21, 2014 Rise Set
Actual Time 6:53 AM CEST 7:10 PM CEST
Civil Twilight 6:21 AM CEST 7:42 PM CEST
Nautical Twilight 5:43 AM CEST 8:19 PM CEST
Astronomical Twilight 5:04 AM CEST 8:59 PM CEST
Moon 3:59 AM CEST 5:46 PM CEST
Length of Visible Light 13h 20m
Length of Day
12h 16m
Tomorrow will be 3m 40s shorter.
Waning Crescent, 8% of the Moon is Illuminated
Today
Waning Crescent
Sep 24
New
Oct 1
First Quarter
Oct 8
Full
Oct 15
Last Quarter

Yesterday's Extremes

Country Highs Country Lows

Community

WunderPhotos

Upload Photos

1,755,101 photos uploaded!

Nearby

Snow Depth

Not available.

Earthquake Activity

City Distance Mag. Time & Date
No recent earthquake activity has been reported nearby.
Minimum magnitude displayed is 2.5.

Coastal Water Temperatures

Place Temperature
No Stations Reporting

Nearby Weather Stations